首页
METAR-TAF:

METAR-TAF

机场 :

Harriman-and-West Airport

北亚当斯, 马萨诸塞州, 美国

纬度: 42-41-50N, 经度: 073-10-13W, 海拔: 199米

当前天气观测

该预报发布于26分钟前的13:25 UTC
静风
温度 -2°C
湿度 93%
气压 1016 hPa
能見度: 6.4公里
散云层高于300英尺
阴天层高于2200英尺
轻雾

METAR: KAQW 151325Z AUTO 00000KT 4SM BR SCT003 OVC022 M02/M03 A3001 RMK AO2 T10221033

时间: 08:51 (13:51 UTC)


TAF: 丢失

超过4000个机场的气象观测和天气预报(METAR&TAF报告)。

可查询的气象台以黄色和红色小点在地图上表示。

将鼠标移到小点上方,可查看气象台名称。

然后点击查看天气观测和预报。

如需切换地图:点击带黑十字的绿色按钮放大地图;点击带横线的绿色按钮缩小地图;或者点击绿色箭头查看邻近地区的地图。


METAR-TAF: